Terminal Aerodrome Forecast
Issued by NWS Corpus Christi, TX

Home | Current Version | Previous Version | Text Only | Print | Product List | Glossary On
Versions: 1 2 3 4 5 6 7 8 9 10 11 12 13 14 15 16 17 18 19
000
FTUS44 KCRP 180300 AAB
TAFVCT
TAF AMD
KVCT 180319Z 1803/1824 08010KT P6SM SCT010 OVC070
      TEMPO 1803/1806 BKN010 OVC070
     FM180600 06007KT 6SM BR OVC010
     FM180900 02006KT 5SM BR OVC003
     FM181400 03008KT P6SM BKN008 OVC015
     FM181800 06008KT P6SM SCT025 BKN050=

USA.gov is the U.S. government's official web portal to all federal, state and local government web resources and services.